createdAt,value
2019-02-28T00:01:15.143Z,9
2019-02-28T00:02:27.427Z,8.98
2019-02-28T00:03:37.531Z,8.98
2019-02-28T00:04:47.648Z,9.04
2019-02-28T00:05:57.778Z,9.01
2019-02-28T00:07:07.895Z,9.05
2019-02-28T00:08:23.144Z,9.02
2019-02-28T00:09:33.271Z,9
2019-02-28T00:10:43.378Z,8.98
2019-02-28T00:11:53.490Z,8.95
2019-02-28T00:13:03.252Z,8.92
2019-02-28T00:14:13.361Z,8.92
2019-02-28T00:15:23.489Z,8.9
2019-02-28T00:16:38.722Z,8.79
2019-02-28T00:17:48.476Z,8.84
2019-02-28T00:18:58.595Z,8.86
2019-02-28T00:20:08.457Z,8.86
2019-02-28T00:21:18.585Z,8.86
2019-02-28T00:22:28.774Z,8.9
2019-02-28T00:23:38.922Z,8.82
2019-02-28T00:24:49.030Z,8.7
2019-02-28T00:25:59.130Z,8.68
2019-02-28T00:27:09.254Z,8.71
2019-02-28T00:28:19.400Z,8.79
2019-02-28T00:29:38.523Z,8.74
2019-02-28T00:30:48.637Z,8.75
2019-02-28T00:31:58.736Z,8.68
2019-02-28T00:33:08.847Z,8.8
2019-02-28T00:34:18.962Z,8.74
2019-02-28T00:35:29.069Z,8.71
2019-02-28T00:36:39.172Z,8.83
2019-02-28T00:37:49.346Z,8.8
2019-02-28T00:39:06.575Z,8.79
2019-02-28T00:40:16.747Z,8.77
2019-02-28T00:41:26.841Z,8.87
2019-02-28T00:42:36.947Z,8.77
2019-02-28T00:43:47.041Z,8.8
2019-02-28T00:44:57.143Z,8.77
2019-02-28T00:46:14.592Z,8.87
2019-02-28T00:47:24.714Z,8.89
2019-02-28T00:48:34.834Z,8.79
2019-02-28T00:49:44.945Z,8.89
2019-02-28T00:50:55.042Z,8.86
2019-02-28T00:52:07.203Z,8.79
2019-02-28T00:53:17.321Z,8.89
2019-02-28T00:54:27.455Z,8.95
2019-02-28T00:55:37.570Z,8.93
2019-02-28T00:56:51.367Z,8.92
2019-02-28T00:58:01.791Z,8.9
2019-02-28T00:59:11.881Z,8.97
2019-02-28T01:00:21.988Z,8.97
2019-02-28T01:01:32.118Z,8.92
2019-02-28T01:02:42.451Z,8.97
2019-02-28T01:04:00.511Z,8.93
2019-02-28T01:05:10.995Z,8.9
2019-02-28T01:06:21.088Z,8.87
2019-02-28T01:07:31.214Z,8.92
2019-02-28T01:08:41.324Z,8.95
2019-02-28T01:09:51.448Z,8.89
2019-02-28T01:11:01.543Z,8.97
2019-02-28T01:12:11.679Z,8.98
2019-02-28T01:13:29.746Z,8.97
2019-02-28T01:14:41.449Z,8.93
2019-02-28T01:15:51.584Z,8.93
2019-02-28T01:17:01.694Z,8.92
2019-02-28T01:18:11.808Z,8.92
2019-02-28T01:19:21.922Z,8.97
2019-02-28T01:20:32.056Z,8.89
2019-02-28T01:21:42.175Z,8.87
2019-02-28T01:22:52.296Z,8.84
2019-02-28T01:24:05.662Z,8.82
2019-02-28T01:25:15.793Z,8.82
2019-02-28T01:26:25.932Z,8.8
2019-02-28T01:27:38.285Z,8.8
2019-02-28T01:28:48.400Z,8.8
2019-02-28T01:29:58.506Z,8.75
2019-02-28T01:31:11.547Z,8.83
2019-02-28T01:32:21.824Z,8.82
2019-02-28T01:33:31.951Z,8.74
2019-02-28T01:34:42.050Z,8.67
2019-02-28T01:35:52.172Z,8.74
2019-02-28T01:37:02.273Z,8.71
2019-02-28T01:38:12.364Z,8.7
2019-02-28T01:39:22.465Z,8.82
2019-02-28T01:40:39.924Z,8.71
2019-02-28T01:41:50.785Z,8.74
2019-02-28T01:43:00.915Z,8.71
2019-02-28T01:44:10.522Z,8.66
2019-02-28T01:45:20.615Z,8.67
2019-02-28T01:46:30.742Z,8.71
2019-02-28T01:47:40.841Z,8.71
2019-02-28T01:48:50.956Z,8.7
2019-02-28T01:50:03.739Z,8.74
2019-02-28T01:51:13.850Z,8.74
2019-02-28T01:52:23.958Z,8.74
2019-02-28T01:53:34.062Z,8.7
2019-02-28T01:54:44.173Z,8.77
2019-02-28T01:55:54.297Z,8.79
2019-02-28T01:57:08.900Z,8.75
2019-02-28T01:58:21.526Z,8.68
2019-02-28T01:59:31.643Z,8.79
2019-02-28T02:00:41.753Z,8.71
2019-02-28T02:01:51.849Z,8.7
2019-02-28T02:03:01.705Z,8.77
2019-02-28T02:04:17.515Z,8.71
2019-02-28T02:05:27.626Z,8.71
2019-02-28T02:06:37.747Z,8.7
2019-02-28T02:07:47.853Z,8.74
2019-02-28T02:08:57.960Z,8.77
2019-02-28T02:10:08.062Z,8.71
2019-02-28T02:11:17.911Z,8.74
2019-02-28T02:12:31.177Z,8.79
2019-02-28T02:13:42.363Z,8.7
2019-02-28T02:14:52.207Z,8.71
2019-02-28T02:16:02.303Z,8.68
2019-02-28T02:17:12.408Z,8.66
2019-02-28T02:18:22.259Z,8.7
2019-02-28T02:19:32.359Z,8.63
2019-02-28T02:20:42.455Z,8.64
2019-02-28T02:21:52.564Z,8.58
2019-02-28T02:23:02.669Z,8.61
2019-02-28T02:24:12.775Z,8.64
2019-02-28T02:25:22.876Z,8.61
2019-02-28T02:26:32.989Z,8.63
2019-02-28T02:27:43.120Z,8.64
2019-02-28T02:29:03.505Z,8.64
2019-02-28T02:30:18.799Z,8.58
2019-02-28T02:31:33.861Z,8.63
2019-02-28T02:32:43.981Z,8.64
2019-02-28T02:33:57.438Z,8.74
2019-02-28T02:35:13.067Z,8.64
2019-02-28T02:36:23.198Z,8.6
2019-02-28T02:37:36.127Z,8.66
2019-02-28T02:38:46.743Z,8.6
2019-02-28T02:39:56.867Z,8.63
2019-02-28T02:41:09.684Z,8.58
2019-02-28T02:42:19.791Z,8.61
2019-02-28T02:43:29.920Z,8.58
2019-02-28T02:44:40.039Z,8.67
2019-02-28T02:45:50.158Z,8.67
2019-02-28T02:47:01.860Z,8.63
2019-02-28T02:48:11.993Z,8.6
2019-02-28T02:49:24.865Z,8.6
2019-02-28T02:50:39.296Z,8.52
2019-02-28T02:51:54.085Z,8.64
2019-02-28T02:53:10.109Z,8.58
2019-02-28T02:54:24.896Z,8.58
2019-02-28T02:55:35.001Z,8.49
2019-02-28T02:56:46.909Z,8.55
2019-02-28T02:57:57.018Z,8.49
2019-02-28T02:59:07.263Z,8.6
2019-02-28T03:00:19.707Z,8.57
2019-02-28T03:01:29.823Z,8.64
2019-02-28T03:02:39.946Z,8.68
2019-02-28T03:03:50.047Z,8.68
2019-02-28T03:05:04.195Z,8.6
2019-02-28T03:06:18.961Z,8.66
2019-02-28T03:07:29.932Z,8.55
2019-02-28T03:08:42.156Z,8.58
2019-02-28T03:09:52.340Z,8.52
2019-02-28T03:11:02.203Z,8.57
2019-02-28T03:12:12.306Z,8.53
2019-02-28T03:13:22.433Z,8.55
2019-02-28T03:14:32.543Z,8.58
2019-02-28T03:15:42.670Z,8.52
2019-02-28T03:16:52.823Z,8.66
2019-02-28T03:18:02.948Z,8.58
2019-02-28T03:19:13.101Z,8.5
2019-02-28T03:20:23.212Z,8.55
2019-02-28T03:21:33.312Z,8.52
2019-02-28T03:22:43.490Z,8.49
2019-02-28T03:23:53.627Z,8.43
2019-02-28T03:25:03.787Z,8.53
2019-02-28T03:26:13.928Z,8.55
2019-02-28T03:27:25.040Z,8.57
2019-02-28T03:28:37.940Z,8.53
2019-02-28T03:29:49.589Z,8.46
2019-02-28T03:31:11.472Z,8.5
2019-02-28T03:32:23.492Z,8.49
2019-02-28T03:33:45.269Z,8.5
2019-02-28T03:35:03.307Z,8.42
2019-02-28T03:36:15.573Z,8.5
2019-02-28T03:37:32.684Z,8.5
2019-02-28T03:38:51.091Z,8.37
2019-02-28T03:40:07.878Z,8.34
2019-02-28T03:41:22.758Z,8.39
2019-02-28T03:42:33.897Z,8.42
2019-02-28T03:43:49.006Z,8.34
2019-02-28T03:45:02.717Z,8.28
2019-02-28T03:46:16.092Z,8.34
2019-02-28T03:47:29.001Z,8.3
2019-02-28T03:48:41.055Z,8.31
2019-02-28T03:49:54.812Z,8.17
2019-02-28T03:51:04.932Z,8.25
2019-02-28T03:52:14.836Z,8.25
2019-02-28T03:53:26.051Z,8.2
2019-02-28T03:54:36.153Z,8.25
2019-02-28T03:55:46.625Z,8.17
2019-02-28T03:56:58.314Z,8.12
2019-02-28T03:58:10.142Z,8.2
2019-02-28T03:59:24.714Z,8.16
2019-02-28T04:00:38.936Z,8.13
2019-02-28T04:01:51.292Z,8.16
2019-02-28T04:03:03.352Z,8.09
2019-02-28T04:04:17.201Z,8.1
2019-02-28T04:05:32.784Z,8.09
2019-02-28T04:06:45.754Z,8.02
2019-02-28T04:07:59.378Z,8.03
2019-02-28T04:09:13.491Z,8.02
2019-02-28T04:10:27.121Z,8.07
2019-02-28T04:11:37.291Z,7.99
2019-02-28T04:12:51.634Z,8.05
2019-02-28T04:14:01.901Z,8.02
2019-02-28T04:15:15.163Z,7.98
2019-02-28T04:16:25.284Z,7.97
2019-02-28T04:17:36.562Z,7.97
2019-02-28T04:18:51.213Z,7.82
2019-02-28T04:20:05.057Z,7.87
2019-02-28T04:21:16.968Z,7.85
2019-02-28T04:22:28.117Z,7.85
2019-02-28T04:23:41.734Z,7.88
2019-02-28T04:24:52.698Z,7.88
2019-02-28T04:26:02.909Z,7.72
2019-02-28T04:27:13.012Z,7.76
2019-02-28T04:28:23.992Z,7.82
2019-02-28T04:29:36.201Z,7.79
2019-02-28T04:30:48.803Z,7.8
2019-02-28T04:32:00.618Z,7.77
2019-02-28T04:33:10.752Z,7.73
2019-02-28T04:34:20.874Z,7.76
2019-02-28T04:35:30.998Z,7.66
2019-02-28T04:36:41.515Z,7.62
2019-02-28T04:37:52.277Z,7.58
2019-02-28T04:39:02.394Z,7.58
2019-02-28T04:40:12.514Z,7.56
2019-02-28T04:41:22.618Z,7.48
2019-02-28T04:42:32.461Z,7.49
2019-02-28T04:43:48.636Z,7.48
2019-02-28T04:44:58.738Z,7.39
2019-02-28T04:46:08.844Z,7.37
2019-02-28T04:47:18.947Z,7.2
2019-02-28T04:48:29.043Z,7.31
2019-02-28T04:49:39.144Z,7.15
2019-02-28T04:50:49.250Z,7.22
2019-02-28T04:51:59.358Z,7.22
2019-02-28T04:53:09.463Z,7.2
2019-02-28T04:54:19.569Z,7.17
2019-02-28T04:55:37.146Z,7.11
2019-02-28T04:56:50.535Z,7.1
2019-02-28T04:58:00.429Z,7.03
2019-02-28T04:59:10.535Z,7.02
2019-02-28T05:00:20.633Z,7.02
2019-02-28T05:01:30.737Z,7
2019-02-28T05:02:40.845Z,6.95
2019-02-28T05:03:52.633Z,6.96
2019-02-28T05:05:11.805Z,6.99
2019-02-28T05:06:25.441Z,6.93
2019-02-28T05:07:35.545Z,6.89
2019-02-28T05:08:45.655Z,6.87
2019-02-28T05:09:55.799Z,6.9
2019-02-28T05:11:05.893Z,6.93
2019-02-28T05:12:16.024Z,6.92
2019-02-28T05:13:25.885Z,6.9
2019-02-28T05:14:36.091Z,6.89
2019-02-28T05:15:46.215Z,6.87
2019-02-28T05:16:56.313Z,6.89
2019-02-28T05:18:06.193Z,6.81
2019-02-28T05:19:16.298Z,6.81
2019-02-28T05:20:26.423Z,6.85
2019-02-28T05:21:38.269Z,6.74
2019-02-28T05:22:48.155Z,6.82
2019-02-28T05:23:58.258Z,6.81
2019-02-28T05:25:08.158Z,6.77
2019-02-28T05:26:28.419Z,6.74
2019-02-28T05:27:40.790Z,6.74
2019-02-28T05:28:50.899Z,6.79
2019-02-28T05:30:01.023Z,6.79
2019-02-28T05:31:11.142Z,6.71
2019-02-28T05:32:21.251Z,6.69
2019-02-28T05:33:31.357Z,6.75
2019-02-28T05:34:53.095Z,6.64
2019-02-28T05:36:06.772Z,6.69
2019-02-28T05:37:17.972Z,6.62
2019-02-28T05:38:28.136Z,6.71
2019-02-28T05:39:38.257Z,6.62
2019-02-28T05:40:49.116Z,6.67
2019-02-28T05:42:00.891Z,6.74
2019-02-28T05:43:10.999Z,6.78
2019-02-28T05:44:21.394Z,6.75
2019-02-28T05:45:31.591Z,6.75
2019-02-28T05:46:41.688Z,6.72
2019-02-28T05:47:52.446Z,6.62
2019-02-28T05:49:02.543Z,6.74
2019-02-28T05:50:18.042Z,6.6
2019-02-28T05:51:29.844Z,6.59
2019-02-28T05:52:39.945Z,6.62
2019-02-28T05:53:49.806Z,6.64
2019-02-28T05:55:00.366Z,6.64
2019-02-28T05:56:10.481Z,6.59
2019-02-28T05:57:20.622Z,6.63
2019-02-28T05:58:30.737Z,6.66
2019-02-28T05:59:40.836Z,6.6
2019-02-28T06:00:50.955Z,6.6
2019-02-28T06:02:01.062Z,6.67
2019-02-28T06:03:11.190Z,6.67
2019-02-28T06:04:21.288Z,6.67
2019-02-28T06:05:31.467Z,6.66
2019-02-28T06:06:41.563Z,6.63
2019-02-28T06:07:51.653Z,6.67
2019-02-28T06:09:01.789Z,6.66
2019-02-28T06:10:11.633Z,6.6
2019-02-28T06:11:21.745Z,6.67
2019-02-28T06:12:31.864Z,6.59
2019-02-28T06:13:42.126Z,6.64
2019-02-28T06:15:04.712Z,6.63
2019-02-28T06:16:17.329Z,6.69
2019-02-28T06:17:27.620Z,6.57
2019-02-28T06:18:38.484Z,6.63
2019-02-28T06:19:49.224Z,6.59
2019-02-28T06:20:59.334Z,6.53
2019-02-28T06:22:09.457Z,6.6
2019-02-28T06:23:19.575Z,6.56
2019-02-28T06:24:29.678Z,6.64
2019-02-28T06:25:39.791Z,6.67
2019-02-28T06:26:49.656Z,6.64
2019-02-28T06:27:59.763Z,6.75
2019-02-28T06:29:10.665Z,6.77
2019-02-28T06:30:20.874Z,6.71
2019-02-28T06:31:34.457Z,6.75
2019-02-28T06:32:44.675Z,6.62
2019-02-28T06:33:57.106Z,6.72
2019-02-28T06:35:07.218Z,6.66
2019-02-28T06:36:21.556Z,6.63
2019-02-28T06:37:40.513Z,6.54
2019-02-28T06:38:51.437Z,6.57
2019-02-28T06:40:04.505Z,6.63
2019-02-28T06:41:14.603Z,6.66
2019-02-28T06:42:24.708Z,6.67
2019-02-28T06:43:34.823Z,6.59
2019-02-28T06:44:44.933Z,6.6
2019-02-28T06:45:56.015Z,6.62
2019-02-28T06:47:06.118Z,6.62
2019-02-28T06:48:26.785Z,6.6
2019-02-28T06:49:43.430Z,6.6
2019-02-28T06:50:53.529Z,6.62
2019-02-28T06:52:03.386Z,6.64
2019-02-28T06:53:13.547Z,6.66
2019-02-28T06:54:23.656Z,6.66
2019-02-28T06:55:33.788Z,6.67
2019-02-28T06:56:43.901Z,6.63
2019-02-28T06:57:54.008Z,6.6
2019-02-28T06:59:09.872Z,6.63
2019-02-28T07:00:20.222Z,6.75
2019-02-28T07:01:32.038Z,6.74
2019-02-28T07:02:42.372Z,6.78
2019-02-28T07:03:58.466Z,6.69
2019-02-28T07:05:08.592Z,6.78
2019-02-28T07:06:18.337Z,6.79
2019-02-28T07:07:28.466Z,6.85
2019-02-28T07:08:38.371Z,6.99
2019-02-28T07:09:48.469Z,6.92
2019-02-28T07:10:58.582Z,6.92
2019-02-28T07:12:08.714Z,6.95
2019-02-28T07:13:21.021Z,7.02
2019-02-28T07:14:31.135Z,7.06
2019-02-28T07:15:41.238Z,7.11
2019-02-28T07:16:51.370Z,7.11
2019-02-28T07:18:01.490Z,7.14
2019-02-28T07:19:11.685Z,7.21
2019-02-28T07:20:21.809Z,7.18
2019-02-28T07:21:34.348Z,7.31
2019-02-28T07:22:55.488Z,7.4
2019-02-28T07:24:07.495Z,7.51
2019-02-28T07:25:18.751Z,7.51
2019-02-28T07:26:28.858Z,7.67
2019-02-28T07:27:39.006Z,7.7
2019-02-28T07:28:48.869Z,7.76
2019-02-28T07:29:58.989Z,7.82
2019-02-28T07:31:09.106Z,8.07
2019-02-28T07:32:19.218Z,8.21
2019-02-28T07:33:30.149Z,8.42
2019-02-28T07:34:40.301Z,8.68
2019-02-28T07:35:50.400Z,9.38
2019-02-28T07:37:00.518Z,10.08
2019-02-28T07:38:10.617Z,10.76
2019-02-28T07:39:20.448Z,11.34
2019-02-28T07:40:30.567Z,12.11
2019-02-28T07:41:41.465Z,12.44
2019-02-28T07:42:51.611Z,12.96
2019-02-28T07:44:01.775Z,13.34
2019-02-28T07:45:12.186Z,13.67
2019-02-28T07:46:22.149Z,13.94
2019-02-28T07:47:32.541Z,14.11
2019-02-28T07:48:42.714Z,14.36
2019-02-28T07:49:54.947Z,14.69
2019-02-28T07:51:05.095Z,14.96
2019-02-28T07:52:14.958Z,15.32
2019-02-28T07:53:25.853Z,15.53
2019-02-28T07:54:36.349Z,15.7
2019-02-28T07:55:46.454Z,15.78
2019-02-28T07:56:56.586Z,15.87
2019-02-28T07:58:06.698Z,16.1
2019-02-28T07:59:16.851Z,16.21
2019-02-28T08:00:26.984Z,16.43
2019-02-28T08:01:37.127Z,16.47
2019-02-28T08:02:47.243Z,16.5
2019-02-28T08:03:57.443Z,16.47
2019-02-28T08:05:07.967Z,16.62
2019-02-28T08:06:18.091Z,16.68
2019-02-28T08:07:28.217Z,17.01
2019-02-28T08:08:38.354Z,17.17
2019-02-28T08:09:48.508Z,17.5
2019-02-28T08:10:58.367Z,17.73
2019-02-28T08:12:08.222Z,17.64
2019-02-28T08:13:19.992Z,17.85
2019-02-28T08:14:30.346Z,18
2019-02-28T08:15:40.477Z,17.98
2019-02-28T08:16:50.335Z,18.12
2019-02-28T08:18:00.477Z,18.12
2019-02-28T08:19:11.318Z,18.09
2019-02-28T08:20:21.468Z,18.07
2019-02-28T08:21:31.596Z,18.28
2019-02-28T08:22:41.829Z,18.17
2019-02-28T08:23:51.756Z,18.12
2019-02-28T08:25:01.962Z,18.25
2019-02-28T08:26:20.926Z,18.38
2019-02-28T08:27:31.149Z,18.37
2019-02-28T08:28:41.587Z,18.38
2019-02-28T08:29:51.711Z,18.35
2019-02-28T08:32:16.187Z,18.42
2019-02-28T08:33:26.063Z,18.23
2019-02-28T08:34:40.759Z,18.46
2019-02-28T08:35:52.268Z,18.38
2019-02-28T08:37:02.391Z,18.55
2019-02-28T08:39:29.460Z,18.57
2019-02-28T08:40:39.594Z,18.63
2019-02-28T08:42:02.506Z,18.75
2019-02-28T08:43:26.796Z,18.62
2019-02-28T08:44:39.793Z,18.46
2019-02-28T08:45:52.376Z,18.19
2019-02-28T08:47:02.523Z,18.09
2019-02-28T08:51:59.103Z,18.22
2019-02-28T08:53:15.355Z,18.34
2019-02-28T08:54:30.890Z,18.59
2019-02-28T08:55:46.764Z,18.67
2019-02-28T08:56:56.881Z,18.95
2019-02-28T09:00:43.236Z,19.06
2019-02-28T09:03:11.713Z,19.3
2019-02-28T09:04:21.484Z,19.46
2019-02-28T09:06:47.577Z,19.53
2019-02-28T09:07:58.358Z,19.67
2019-02-28T09:09:08.487Z,19.64
2019-02-28T09:10:20.078Z,19.46
2019-02-28T09:11:29.931Z,19.42
2019-02-28T09:12:42.421Z,19.46
2019-02-28T09:17:37.881Z,18.98
2019-02-28T09:18:49.705Z,19.02
2019-02-28T09:20:07.406Z,19.13
2019-02-28T09:21:23.127Z,19.12
2019-02-28T09:22:33.272Z,19.31
2019-02-28T09:23:43.527Z,19.52
2019-02-28T09:24:53.657Z,19.52
2019-02-28T09:26:05.877Z,19.61
2019-02-28T09:27:16.894Z,19.6
2019-02-28T09:28:27.023Z,19.58
2019-02-28T09:29:37.169Z,19.63
2019-02-28T09:30:54.575Z,19.64
2019-02-28T09:32:17.484Z,19.8
2019-02-28T09:33:28.836Z,19.64
2019-02-28T09:34:39.080Z,19.53
2019-02-28T09:35:51.295Z,19.4
2019-02-28T09:37:01.785Z,19.1
2019-02-28T09:38:18.010Z,18.79
2019-02-28T09:39:28.152Z,18.44
2019-02-28T09:40:38.278Z,18.37
2019-02-28T09:41:49.136Z,18.22
2019-02-28T09:42:59.241Z,18.1
2019-02-28T09:44:09.611Z,18.01
2019-02-28T09:45:19.935Z,18.04
2019-02-28T09:46:30.064Z,17.87
2019-02-28T09:47:40.433Z,17.91
2019-02-28T09:48:50.329Z,17.83
2019-02-28T09:50:00.508Z,17.75
2019-02-28T09:51:11.310Z,17.68
2019-02-28T09:52:22.770Z,17.65
2019-02-28T09:53:33.169Z,17.57
2019-02-28T09:54:44.542Z,17.67
2019-02-28T09:55:54.922Z,17.98
2019-02-28T09:57:06.310Z,18.37
2019-02-28T09:58:16.231Z,18.49
2019-02-28T09:59:26.401Z,18.52
2019-02-28T10:00:36.275Z,18.65
2019-02-28T10:02:00.846Z,18.65
2019-02-28T10:03:20.583Z,18.82
2019-02-28T10:04:34.926Z,18.78
2019-02-28T10:05:48.069Z,18.78
2019-02-28T10:06:59.382Z,18.94
2019-02-28T10:08:11.935Z,19.13
2019-02-28T10:09:22.676Z,19.39
2019-02-28T10:10:35.260Z,19.61
2019-02-28T10:11:46.134Z,19.68
2019-02-28T10:12:56.952Z,19.67
2019-02-28T10:14:07.346Z,19.7
2019-02-28T10:15:17.668Z,19.56
2019-02-28T10:16:27.802Z,19.53
2019-02-28T10:17:38.418Z,19.7
2019-02-28T10:18:50.137Z,19.67
2019-02-28T10:20:00.459Z,19.67
2019-02-28T10:21:10.585Z,19.82
2019-02-28T10:22:20.964Z,19.85
2019-02-28T10:23:31.323Z,19.73
2019-02-28T10:24:41.459Z,19.52
2019-02-28T10:25:51.611Z,19.31
2019-02-28T10:27:03.431Z,19.24
2019-02-28T10:28:14.099Z,19.18
2019-02-28T10:29:24.255Z,19.18
2019-02-28T10:30:37.258Z,19.1
2019-02-28T10:31:47.383Z,19.31
2019-02-28T10:32:57.532Z,19.39
2019-02-28T10:34:07.730Z,19.53
2019-02-28T10:35:18.557Z,19.6
2019-02-28T10:36:28.784Z,19.74
2019-02-28T10:37:40.563Z,20
2019-02-28T10:38:50.680Z,20.03
2019-02-28T10:40:00.558Z,20.08
2019-02-28T10:41:12.866Z,20.23
2019-02-28T10:42:23.239Z,20.31
2019-02-28T10:43:33.402Z,20.28
2019-02-28T10:44:43.691Z,20.34
2019-02-28T10:45:53.822Z,20.27
2019-02-28T10:47:04.196Z,20.3
2019-02-28T10:48:14.345Z,20.35
2019-02-28T10:49:27.330Z,20.43
2019-02-28T10:50:38.539Z,20.3
2019-02-28T10:51:52.841Z,20.3
2019-02-28T10:53:09.190Z,20.21
2019-02-28T10:54:20.480Z,20.28
2019-02-28T10:55:30.625Z,20.3
2019-02-28T10:56:41.554Z,20.28
2019-02-28T10:57:51.731Z,20.11
2019-02-28T10:59:01.872Z,20.17
2019-02-28T11:00:11.750Z,20.3
2019-02-28T11:01:21.507Z,20.48
2019-02-28T11:02:31.865Z,20.75
2019-02-28T11:03:42.004Z,20.82
2019-02-28T11:04:52.153Z,20.96
2019-02-28T11:06:02.041Z,20.97
2019-02-28T11:07:12.399Z,21.03
2019-02-28T11:08:24.229Z,20.85
2019-02-28T11:09:34.359Z,20.83
2019-02-28T11:10:43.977Z,20.75
2019-02-28T11:11:54.113Z,20.64
2019-02-28T11:13:04.284Z,20.45
2019-02-28T11:14:14.652Z,20.42
2019-02-28T11:15:24.790Z,20.31
2019-02-28T11:16:36.116Z,20.3
2019-02-28T11:17:47.130Z,19.93
2019-02-28T11:18:57.513Z,19.56
2019-02-28T11:20:07.673Z,19.5
2019-02-28T11:21:29.714Z,19.4
2019-02-28T11:22:43.156Z,19.34
2019-02-28T11:23:55.060Z,19.23
2019-02-28T11:25:06.557Z,19.27
2019-02-28T11:26:16.717Z,19.18
2019-02-28T11:27:27.886Z,19.13
2019-02-28T11:28:38.034Z,19.1
2019-02-28T11:29:48.178Z,19.18
2019-02-28T11:30:58.339Z,19.19
2019-02-28T11:32:08.212Z,19.18
2019-02-28T11:33:18.395Z,19.21
2019-02-28T11:34:30.648Z,19.31
2019-02-28T11:35:40.796Z,19.35
2019-02-28T11:36:50.925Z,19.33
2019-02-28T11:38:01.285Z,19.45
2019-02-28T11:39:12.817Z,19.5
2019-02-28T11:40:22.984Z,19.63
2019-02-28T11:41:32.867Z,19.68
2019-02-28T11:42:42.997Z,19.64
2019-02-28T11:43:53.130Z,19.71
2019-02-28T11:45:03.252Z,19.8
2019-02-28T11:46:13.416Z,19.89
2019-02-28T11:47:23.551Z,19.88
2019-02-28T11:48:33.456Z,19.9
2019-02-28T11:49:43.623Z,19.74
2019-02-28T11:50:53.779Z,19.48
2019-02-28T11:52:03.939Z,19.21
2019-02-28T11:53:14.079Z,18.63
2019-02-28T11:54:24.608Z,18.37
2019-02-28T11:55:34.780Z,18.15
2019-02-28T11:56:44.920Z,17.98
2019-02-28T11:57:55.101Z,17.75
2019-02-28T11:59:05.222Z,17.76
2019-02-28T12:00:15.921Z,17.7
2019-02-28T12:01:25.806Z,17.61
2019-02-28T12:02:36.711Z,17.4
2019-02-28T12:03:46.853Z,17.32
2019-02-28T12:04:56.996Z,17.17
2019-02-28T12:06:09.299Z,16.99
2019-02-28T12:07:19.416Z,16.84
2019-02-28T12:08:29.545Z,16.69
2019-02-28T12:09:39.691Z,16.54
2019-02-28T12:10:49.852Z,16.53
2019-02-28T12:12:01.049Z,16.47
2019-02-28T12:13:16.408Z,16.46
2019-02-28T12:14:33.914Z,16.36
2019-02-28T12:15:44.206Z,16.28
2019-02-28T12:16:58.433Z,16.25
2019-02-28T12:18:09.759Z,16.17
2019-02-28T12:19:20.851Z,16.06
2019-02-28T12:20:32.180Z,15.91
2019-02-28T12:21:43.630Z,15.79
2019-02-28T12:22:54.889Z,15.55
2019-02-28T12:24:05.592Z,15.7
2019-02-28T12:25:15.477Z,15.43
2019-02-28T12:26:26.050Z,15.38
2019-02-28T12:27:36.180Z,15.35
2019-02-28T12:28:46.322Z,15.21
2019-02-28T12:29:56.467Z,15.21
2019-02-28T12:31:06.611Z,15.25
2019-02-28T12:32:16.734Z,15.25
2019-02-28T12:33:28.067Z,15.21
2019-02-28T12:34:38.189Z,15.18
2019-02-28T12:35:48.325Z,15.11
2019-02-28T12:37:02.322Z,15.09
2019-02-28T12:38:12.459Z,15.05
2019-02-28T12:39:23.670Z,15.13
2019-02-28T12:40:33.879Z,15.21
2019-02-28T12:41:45.062Z,15.17
2019-02-28T12:42:55.176Z,15.09
2019-02-28T12:44:05.326Z,15.13
2019-02-28T12:45:17.860Z,15.15
2019-02-28T12:46:34.377Z,15.09
2019-02-28T12:47:48.319Z,15.09
2019-02-28T12:48:58.469Z,15.17
2019-02-28T12:50:08.605Z,15.24
2019-02-28T12:51:18.836Z,15.21
2019-02-28T12:52:29.011Z,15.09
2019-02-28T12:53:39.164Z,15.03
2019-02-28T12:54:49.290Z,14.83
2019-02-28T12:55:59.408Z,14.75
2019-02-28T12:57:09.581Z,14.66
2019-02-28T12:58:19.711Z,14.65
2019-02-28T12:59:29.965Z,14.69
2019-02-28T13:00:42.563Z,14.59
2019-02-28T13:01:52.734Z,14.66
2019-02-28T13:03:02.911Z,14.67
2019-02-28T13:04:14.628Z,14.58
2019-02-28T13:05:24.761Z,14.45
2019-02-28T13:06:34.890Z,14.31
2019-02-28T13:07:45.047Z,14.36
2019-02-28T13:08:58.366Z,14.43
2019-02-28T13:10:09.056Z,14.39
2019-02-28T13:11:19.217Z,14.28
2019-02-28T13:12:29.340Z,14.25
2019-02-28T13:13:39.509Z,14.24
2019-02-28T13:14:49.661Z,14.28
2019-02-28T13:16:00.249Z,14.22
2019-02-28T13:17:10.386Z,14.14
2019-02-28T13:18:21.539Z,14.07
2019-02-28T13:19:31.704Z,14.13
2019-02-28T13:20:41.602Z,14.07
2019-02-28T13:21:52.817Z,14.18
2019-02-28T13:23:05.619Z,14.16
2019-02-28T13:24:15.781Z,14.1
2019-02-28T13:25:29.165Z,14.19
2019-02-28T13:26:39.336Z,13.99
2019-02-28T13:27:50.379Z,14.02
2019-02-28T13:29:02.933Z,14
2019-02-28T13:30:16.733Z,14.03
2019-02-28T13:31:30.754Z,14.03
2019-02-28T13:32:44.133Z,13.94
2019-02-28T13:34:01.075Z,13.82
2019-02-28T13:35:13.275Z,13.77
2019-02-28T13:36:26.492Z,13.84
2019-02-28T13:37:44.745Z,13.86
2019-02-28T13:39:00.531Z,13.88
2019-02-28T13:40:13.929Z,13.73
2019-02-28T13:41:30.845Z,13.79
2019-02-28T13:42:45.383Z,13.76
2019-02-28T13:43:59.257Z,13.71
2019-02-28T13:45:25.190Z,13.67
2019-02-28T13:46:38.962Z,13.64
2019-02-28T13:47:51.428Z,13.64
2019-02-28T13:49:01.298Z,13.55
2019-02-28T13:50:14.007Z,13.55
2019-02-28T13:51:32.164Z,13.49
2019-02-28T13:52:52.065Z,13.52
2019-02-28T13:54:12.126Z,13.38
2019-02-28T13:55:23.956Z,13.44
2019-02-28T13:56:38.998Z,13.4
2019-02-28T13:57:51.731Z,13.34
2019-02-28T13:59:03.249Z,13.36
2019-02-28T14:00:13.939Z,13.3
2019-02-28T14:01:25.216Z,13.34
2019-02-28T14:02:38.627Z,13.26
2019-02-28T14:03:50.966Z,13.33
2019-02-28T14:05:06.340Z,13.33
2019-02-28T14:06:23.577Z,13.36
2019-02-28T14:07:36.190Z,13.27
2019-02-28T14:08:49.878Z,13.27
2019-02-28T14:10:03.194Z,13.21
2019-02-28T14:11:15.803Z,13.23
2019-02-28T14:12:28.747Z,13.23
2019-02-28T14:13:39.884Z,13.18
2019-02-28T14:14:50.039Z,13.26
2019-02-28T14:16:00.160Z,13.21
2019-02-28T14:17:10.310Z,13.13
2019-02-28T14:18:20.440Z,13.12
2019-02-28T14:19:30.572Z,13.09
2019-02-28T14:20:40.686Z,13.03
2019-02-28T14:21:50.809Z,12.93
2019-02-28T14:23:00.943Z,12.95
2019-02-28T14:24:11.067Z,12.88
2019-02-28T14:25:21.224Z,12.85
2019-02-28T14:26:42.316Z,12.93
2019-02-28T14:28:00.173Z,12.95
2019-02-28T14:29:13.814Z,13.06
2019-02-28T14:30:25.329Z,13.01
2019-02-28T14:31:38.523Z,12.93
2019-02-28T14:32:50.471Z,13.01
2019-02-28T14:34:00.628Z,12.95
2019-02-28T14:35:10.819Z,12.95
2019-02-28T14:36:20.949Z,13
2019-02-28T14:37:30.730Z,13
2019-02-28T14:38:40.872Z,12.93
2019-02-28T14:39:51.015Z,13
2019-02-28T14:41:01.896Z,12.97
2019-02-28T14:42:12.983Z,12.95
2019-02-28T14:43:24.642Z,12.88
2019-02-28T14:44:37.332Z,12.92
2019-02-28T14:45:48.796Z,12.84
2019-02-28T14:46:59.046Z,12.84
2019-02-28T14:48:10.084Z,12.84
2019-02-28T14:49:20.217Z,12.89
2019-02-28T14:50:30.351Z,12.88
2019-02-28T14:51:40.507Z,12.84
2019-02-28T14:52:50.649Z,12.85
2019-02-28T14:54:00.800Z,12.82
2019-02-28T14:55:10.921Z,12.75
2019-02-28T14:56:21.081Z,12.71
2019-02-28T14:57:31.235Z,12.63
2019-02-28T14:58:41.382Z,12.57
2019-02-28T14:59:51.496Z,12.57
2019-02-28T15:01:01.642Z,12.39
2019-02-28T15:02:11.783Z,12.41
2019-02-28T15:03:21.929Z,12.42
2019-02-28T15:04:32.290Z,12.42
2019-02-28T15:05:45.262Z,12.37
2019-02-28T15:06:57.887Z,12.32
2019-02-28T15:08:15.201Z,12.31
2019-02-28T15:09:27.007Z,12.23
2019-02-28T15:10:39.249Z,12.2
2019-02-28T15:11:52.785Z,12.26
2019-02-28T15:13:04.851Z,12.23
2019-02-28T15:14:15.242Z,12.22
2019-02-28T15:15:25.367Z,12.23
2019-02-28T15:16:35.531Z,12.16
2019-02-28T15:17:46.891Z,12.17
2019-02-28T15:18:57.057Z,12.09
2019-02-28T15:20:06.934Z,12.07
2019-02-28T15:21:20.553Z,12.15
2019-02-28T15:22:30.712Z,12.09
2019-02-28T15:23:40.867Z,12.07
2019-02-28T15:24:51.028Z,12.07
2019-02-28T15:26:00.894Z,12.05
2019-02-28T15:27:11.060Z,12.04
2019-02-28T15:28:21.206Z,12.09
2019-02-28T15:29:31.881Z,12.01
2019-02-28T15:30:42.021Z,12.01
2019-02-28T15:31:52.174Z,11.95
2019-02-28T15:33:02.351Z,11.83
2019-02-28T15:34:12.498Z,11.9
2019-02-28T15:35:22.648Z,11.91
2019-02-28T15:36:32.820Z,11.82
2019-02-28T15:37:42.950Z,11.8
2019-02-28T15:38:53.077Z,11.77
2019-02-28T15:40:03.127Z,11.76
2019-02-28T15:41:13.282Z,11.72
2019-02-28T15:42:23.986Z,11.74
2019-02-28T15:43:34.099Z,11.62
2019-02-28T15:44:44.339Z,11.61
2019-02-28T15:45:54.466Z,11.59
2019-02-28T15:47:04.595Z,11.45
2019-02-28T15:48:14.718Z,11.48
2019-02-28T15:49:24.626Z,11.42
2019-02-28T15:50:34.764Z,11.4
2019-02-28T15:51:44.885Z,11.45
2019-02-28T15:52:55.252Z,11.38
2019-02-28T15:54:05.421Z,11.42